Time;durP1;ratioP1;P1;durP2;ratioP2;P2;SDS_P1;SDS_P2;PMS_P1;PMS_P2;Temp;Humidity;BMP_temperature;BMP_pressure;BME280_temperature;BME280_humidity;BME280_pressure;Samples;Min_cycle;Max_cycle;Signal;HPM_P1;HPM_P2
2022/07/05 00:02:13;;;;;;;;;;;15.10;99.90;;;;;;5089076;28;19931;-77
2022/07/05 00:04:38;;;;;;;;;;;15.10;99.90;;;;;;5089929;28;19932;-76
2022/07/05 00:07:19;;;;;;;;;;;15.10;99.90;;;;;;5070562;28;19934;-76
2022/07/05 00:09:49;;;;;;;;;;;15.00;99.90;;;;;;5071223;28;19950;-76
2022/07/05 00:12:15;;;;;;;;;;;15.00;99.90;;;;;;5089544;28;20349;-76
2022/07/05 00:14:41;;;;;;;;;;;15.00;99.90;;;;;;5089642;28;19978;-77
2022/07/05 00:17:07;;;;;;;;;;;15.00;99.90;;;;;;5089281;28;19928;-76
2022/07/05 00:19:32;;;;;;;;;;;14.90;99.90;;;;;;5089229;28;20019;-76
2022/07/05 00:21:58;;;;;;;;;;;14.90;99.90;;;;;;5088813;28;19979;-76
2022/07/05 00:24:24;;;;;;;;;;;14.80;99.90;;;;;;5089401;28;19931;-76
2022/07/05 00:26:50;;;;;;;;;;;14.80;99.90;;;;;;5089183;28;20410;-76
2022/07/05 00:29:15;;;;;;;;;;;14.80;99.90;;;;;;5089432;28;19981;-76
2022/07/05 00:31:41;;;;;;;;;;;14.70;99.90;;;;;;5089145;28;19978;-77
2022/07/05 00:34:06;;;;;;;;;;;14.70;99.90;;;;;;5089471;28;19936;-77
2022/07/05 00:36:32;;;;;;;;;;;14.70;99.90;;;;;;5088974;28;20003;-76
2022/07/05 00:38:57;;;;;;;;;;;14.80;99.90;;;;;;5089063;28;20083;-76
2022/07/05 00:41:23;;;;;;;;;;;14.80;99.90;;;;;;5089417;28;19939;-76
2022/07/05 00:43:53;;;;;;;;;;;14.80;99.90;;;;;;5093113;28;20314;-76
2022/07/05 00:46:18;;;;;;;;;;;14.80;99.90;;;;;;5092680;28;20011;-76
2022/07/05 00:48:44;;;;;;;;;;;14.80;99.90;;;;;;5092611;28;20339;-76
2022/07/05 00:51:10;;;;;;;;;;;14.80;99.90;;;;;;5092628;28;20398;-76
2022/07/05 00:53:35;;;;;;;;;;;14.80;99.90;;;;;;5092614;28;19931;-76
2022/07/05 00:56:01;;;;;;;;;;;14.80;99.90;;;;;;5092698;28;19931;-76
2022/07/05 00:58:27;;;;;;;;;;;14.80;99.90;;;;;;5092182;28;19928;-76
2022/07/05 01:00:53;;;;;;;;;;;14.80;99.90;;;;;;5092546;28;20029;-76
2022/07/05 01:03:18;;;;;;;;;;;14.80;99.90;;;;;;5075172;28;20398;-77
2022/07/05 01:05:44;;;;;;;;;;;14.90;99.90;;;;;;5092801;28;19943;-76
2022/07/05 01:08:10;;;;;;;;;;;14.90;99.90;;;;;;5081631;28;20860;-76
2022/07/05 01:10:36;;;;;;;;;;;14.90;99.90;;;;;;5090702;28;20340;-76
2022/07/05 01:13:02;;;;;;;;;;;14.90;99.90;;;;;;5092281;28;20050;-76
2022/07/05 01:15:27;;;;;;;;;;;14.90;99.90;;;;;;5092243;28;20007;-76
2022/07/05 01:17:53;;;;;;;;;;;14.90;99.90;;;;;;5091767;28;20302;-77
2022/07/05 01:20:18;;;;;;;;;;;14.90;99.90;;;;;;5092515;28;19946;-76
2022/07/05 01:22:57;;;;;;;;;;;15.00;99.90;;;;;;5092264;28;19935;-77
2022/07/05 01:25:24;;;;;;;;;;;15.00;99.90;;;;;;5092337;28;19931;-76
2022/07/05 01:27:50;;;;;;;;;;;14.90;99.90;;;;;;5091351;28;20049;-76
2022/07/05 01:30:16;;;;;;;;;;;14.90;99.90;;;;;;5092283;28;19928;-76
2022/07/05 01:32:42;;;;;;;;;;;14.90;99.90;;;;;;5091696;28;19931;-76
2022/07/05 01:35:09;;;;;;;;;;;14.90;99.90;;;;;;5092066;28;20032;-76
2022/07/05 01:37:34;;;;;;;;;;;14.90;99.90;;;;;;5092138;28;19956;-76
2022/07/05 01:40:03;;;;;;;;;;;14.90;99.90;;;;;;5091798;28;19967;-76
2022/07/05 01:42:29;;;;;;;;;;;14.80;99.90;;;;;;5091577;28;20006;-76
2022/07/05 01:44:54;;;;;;;;;;;14.70;99.90;;;;;;5091573;28;20073;-76
2022/07/05 01:47:20;;;;;;;;;;;14.70;99.90;;;;;;5092191;28;20611;-76
2022/07/05 01:49:47;;;;;;;;;;;14.70;99.90;;;;;;5091500;28;19931;-76
2022/07/05 01:52:13;;;;;;;;;;;14.60;99.90;;;;;;5091501;28;19931;-76
2022/07/05 01:54:39;;;;;;;;;;;14.50;99.90;;;;;;5090832;28;19998;-77
2022/07/05 01:57:05;;;;;;;;;;;14.50;99.90;;;;;;5091169;28;19989;-76
2022/07/05 01:59:35;;;;;;;;;;;14.50;99.90;;;;;;5073052;28;20275;-76
2022/07/05 02:02:00;;;;;;;;;;;14.50;99.90;;;;;;5091340;28;20022;-76
2022/07/05 02:04:27;;;;;;;;;;;14.40;99.90;;;;;;5091549;28;20062;-76
2022/07/05 02:06:52;;;;;;;;;;;14.40;99.90;;;;;;5091581;28;19932;-76
2022/07/05 02:09:18;;;;;;;;;;;14.40;99.90;;;;;;5090886;28;20455;-76
2022/07/05 02:11:43;;;;;;;;;;;14.40;99.90;;;;;;5091029;28;19975;-76
2022/07/05 02:14:09;;;;;;;;;;;14.40;99.90;;;;;;5087095;28;20405;-76
2022/07/05 02:16:35;;;;;;;;;;;14.30;99.90;;;;;;5091151;28;19924;-76
2022/07/05 02:19:01;;;;;;;;;;;14.20;99.90;;;;;;5091049;28;19924;-76
2022/07/05 02:21:26;;;;;;;;;;;14.20;99.90;;;;;;5091118;28;19935;-76
2022/07/05 02:23:52;;;;;;;;;;;14.10;99.90;;;;;;5090388;28;19924;-76
2022/07/05 02:26:18;;;;;;;;;;;14.10;99.90;;;;;;5091146;28;19924;-76
2022/07/05 02:28:43;;;;;;;;;;;14.10;99.90;;;;;;5090760;28;19933;-76
2022/07/05 02:31:09;;;;;;;;;;;14.00;99.90;;;;;;5091083;28;19970;-76
2022/07/05 02:33:34;;;;;;;;;;;14.00;99.90;;;;;;5090793;28;19935;-76
2022/07/05 02:36:07;;;;;;;;;;;14.00;99.90;;;;;;5090448;28;19924;-76
2022/07/05 02:38:33;;;;;;;;;;;14.00;99.90;;;;;;5090641;28;19924;-76
2022/07/05 02:40:58;;;;;;;;;;;13.90;99.90;;;;;;5065911;28;20012;-77
2022/07/05 02:43:24;;;;;;;;;;;13.90;99.90;;;;;;5084226;28;19924;-76
2022/07/05 02:45:49;;;;;;;;;;;13.90;99.90;;;;;;5090742;28;19928;-76
2022/07/05 02:48:15;;;;;;;;;;;13.90;99.90;;;;;;5090204;28;19932;-76
2022/07/05 02:50:40;;;;;;;;;;;13.80;99.90;;;;;;5090632;28;19973;-76
2022/07/05 02:53:06;;;;;;;;;;;13.80;99.90;;;;;;5090350;28;19924;-76
2022/07/05 02:55:31;;;;;;;;;;;13.80;99.90;;;;;;5090786;28;20382;-76
2022/07/05 02:57:57;;;;;;;;;;;13.80;99.90;;;;;;5090327;28;20306;-76
2022/07/05 03:00:23;;;;;;;;;;;13.80;99.90;;;;;;5090164;28;19928;-75
2022/07/05 03:02:48;;;;;;;;;;;13.70;99.90;;;;;;5090395;28;19931;-76
2022/07/05 03:05:14;;;;;;;;;;;13.70;99.90;;;;;;5089943;28;20306;-76
2022/07/05 03:07:40;;;;;;;;;;;13.70;99.90;;;;;;5090006;28;19931;-76
2022/07/05 03:10:05;;;;;;;;;;;13.70;99.90;;;;;;5090168;28;20302;-76
2022/07/05 03:12:31;;;;;;;;;;;13.60;99.90;;;;;;5089883;28;19969;-76
2022/07/05 03:14:57;;;;;;;;;;;13.60;99.90;;;;;;5042347;28;20344;-76
2022/07/05 03:17:22;;;;;;;;;;;13.60;99.90;;;;;;5089673;28;19924;-76
2022/07/05 03:19:48;;;;;;;;;;;13.60;99.90;;;;;;5089776;28;19928;-76
2022/07/05 03:22:13;;;;;;;;;;;13.50;99.90;;;;;;5089492;28;19924;-76
2022/07/05 03:24:39;;;;;;;;;;;13.60;99.90;;;;;;5071909;28;19928;-76
2022/07/05 03:27:04;;;;;;;;;;;13.50;99.90;;;;;;5089141;28;19949;-76
2022/07/05 03:29:30;;;;;;;;;;;13.50;99.90;;;;;;5090067;28;20374;-76
2022/07/05 03:31:55;;;;;;;;;;;13.50;99.90;;;;;;5088663;28;19928;-76
2022/07/05 03:34:21;;;;;;;;;;;13.50;99.90;;;;;;5088816;28;19924;-76
2022/07/05 03:36:46;;;;;;;;;;;13.40;99.90;;;;;;5088744;28;20039;-76
2022/07/05 03:39:12;;;;;;;;;;;13.50;99.90;;;;;;5088475;28;19958;-76
2022/07/05 03:41:38;;;;;;;;;;;13.40;99.90;;;;;;5089321;28;19950;-76
2022/07/05 03:44:03;;;;;;;;;;;13.50;99.90;;;;;;5089974;28;19925;-76
2022/07/05 03:46:29;;;;;;;;;;;13.50;99.90;;;;;;5087378;28;19924;-77
2022/07/05 03:48:54;;;;;;;;;;;13.50;99.90;;;;;;5089383;28;19924;-75
2022/07/05 03:51:20;;;;;;;;;;;13.50;99.90;;;;;;5089307;28;19981;-76
2022/07/05 03:53:45;;;;;;;;;;;13.50;99.90;;;;;;5089499;28;19923;-76
2022/07/05 03:56:11;;;;;;;;;;;13.50;99.90;;;;;;5089870;28;20547;-76
2022/07/05 03:58:36;;;;;;;;;;;13.50;99.90;;;;;;5089519;28;19924;-76
2022/07/05 04:01:02;;;;;;;;;;;13.60;99.90;;;;;;5071266;28;19931;-76
2022/07/05 04:03:28;;;;;;;;;;;13.60;99.90;;;;;;5083749;28;20294;-76
2022/07/05 04:05:53;;;;;;;;;;;13.60;99.90;;;;;;5078192;28;19967;-76
2022/07/05 04:08:19;;;;;;;;;;;13.70;99.90;;;;;;5067385;28;19939;-75
2022/07/05 04:10:44;;;;;;;;;;;13.70;99.90;;;;;;5083045;28;19936;-75
2022/07/05 04:13:10;;;;;;;;;;;13.70;99.90;;;;;;5085456;28;19977;-75
2022/07/05 04:15:35;;;;;;;;;;;13.80;99.90;;;;;;5078826;28;19969;-76
2022/07/05 04:18:01;;;;;;;;;;;13.80;99.90;;;;;;5088084;28;19924;-76
2022/07/05 04:20:26;;;;;;;;;;;13.80;99.90;;;;;;5075532;28;19935;-76
2022/07/05 04:22:52;;;;;;;;;;;13.90;99.90;;;;;;5093501;28;20386;-76
2022/07/05 04:25:18;;;;;;;;;;;13.90;99.90;;;;;;5093466;28;19924;-76
2022/07/05 04:27:51;;;;;;;;;;;13.90;99.90;;;;;;5092908;28;19928;-76
2022/07/05 04:30:17;;;;;;;;;;;14.00;99.90;;;;;;5093019;28;19924;-76
2022/07/05 04:32:43;;;;;;;;;;;14.10;99.90;;;;;;5083653;28;20058;-76
2022/07/05 04:35:09;;;;;;;;;;;14.10;99.90;;;;;;5090058;28;19924;-76
2022/07/05 04:37:35;;;;;;;;;;;14.20;99.90;;;;;;5092743;28;19924;-76
2022/07/05 04:40:01;;;;;;;;;;;14.20;99.90;;;;;;5092940;28;19924;-76
2022/07/05 04:42:26;;;;;;;;;;;14.20;99.90;;;;;;5065259;28;20066;-76
2022/07/05 04:44:52;;;;;;;;;;;14.30;99.90;;;;;;5077727;28;20408;-76
2022/07/05 04:47:17;;;;;;;;;;;14.30;99.90;;;;;;5092643;28;19924;-77
2022/07/05 04:49:43;;;;;;;;;;;14.40;99.90;;;;;;5092298;28;19924;-76
2022/07/05 04:52:08;;;;;;;;;;;14.40;99.90;;;;;;5093002;28;19924;-76
2022/07/05 04:54:35;;;;;;;;;;;14.50;99.90;;;;;;5090907;28;19931;-76
2022/07/05 04:57:00;;;;;;;;;;;14.50;99.90;;;;;;5081611;28;19924;-76
2022/07/05 04:59:26;;;;;;;;;;;14.50;99.90;;;;;;5092564;28;20275;-76
2022/07/05 05:01:51;;;;;;;;;;;14.60;99.90;;;;;;5092894;28;19924;-76
2022/07/05 05:04:17;;;;;;;;;;;14.70;99.90;;;;;;5092690;28;19931;-76
2022/07/05 05:06:42;;;;;;;;;;;14.70;99.90;;;;;;5092358;28;19928;-75
2022/07/05 05:09:07;;;;;;;;;;;14.70;99.90;;;;;;5092525;28;20345;-76
2022/07/05 05:11:33;;;;;;;;;;;14.80;99.90;;;;;;5092398;28;19924;-76
2022/07/05 05:13:58;;;;;;;;;;;14.80;99.90;;;;;;5092678;28;19974;-76
2022/07/05 05:16:24;;;;;;;;;;;14.90;99.90;;;;;;5092296;28;19990;-76
2022/07/05 05:18:50;;;;;;;;;;;15.00;99.90;;;;;;5092511;28;19932;-76
2022/07/05 05:21:15;;;;;;;;;;;15.00;99.90;;;;;;5092701;28;19924;-76
2022/07/05 05:23:41;;;;;;;;;;;15.00;99.90;;;;;;5078729;28;20291;-76
2022/07/05 05:26:06;;;;;;;;;;;15.10;99.90;;;;;;5092036;28;20385;-76
2022/07/05 05:28:32;;;;;;;;;;;15.10;99.90;;;;;;5091072;28;19925;-76
2022/07/05 05:30:57;;;;;;;;;;;15.20;99.90;;;;;;5092278;28;19928;-76
2022/07/05 05:33:23;;;;;;;;;;;15.20;99.90;;;;;;5091903;28;19924;-76
2022/07/05 05:35:48;;;;;;;;;;;15.30;99.90;;;;;;5091762;28;19973;-76
2022/07/05 05:38:14;;;;;;;;;;;15.30;99.90;;;;;;5091359;28;19983;-76
2022/07/05 05:40:41;;;;;;;;;;;15.40;99.90;;;;;;5092068;28;19976;-76
2022/07/05 05:43:06;;;;;;;;;;;15.40;99.90;;;;;;5092168;28;19928;-76
2022/07/05 05:45:32;;;;;;;;;;;15.50;99.90;;;;;;5092095;28;19924;-76
2022/07/05 05:47:58;;;;;;;;;;;15.50;99.90;;;;;;5090876;28;19928;-76
2022/07/05 05:50:24;;;;;;;;;;;15.60;99.90;;;;;;5092210;28;19931;-76
2022/07/05 05:52:49;;;;;;;;;;;15.60;99.90;;;;;;5091402;28;19928;-76
2022/07/05 05:55:15;;;;;;;;;;;15.60;99.90;;;;;;5091848;28;20407;-77
2022/07/05 05:57:41;;;;;;;;;;;15.70;99.90;;;;;;5091155;28;19924;-76
2022/07/05 06:00:07;;;;;;;;;;;15.80;99.90;;;;;;5091442;28;19978;-76
2022/07/05 06:02:32;;;;;;;;;;;15.80;99.90;;;;;;5091613;28;19938;-76
2022/07/05 06:04:58;;;;;;;;;;;15.90;99.90;;;;;;5091445;28;20014;-76
2022/07/05 06:07:23;;;;;;;;;;;16.00;99.90;;;;;;5060396;28;19924;-76
2022/07/05 06:09:49;;;;;;;;;;;16.00;99.90;;;;;;5091467;28;19928;-76
2022/07/05 06:12:14;;;;;;;;;;;16.10;99.90;;;;;;5091493;28;19924;-77
2022/07/05 06:14:40;;;;;;;;;;;16.20;99.90;;;;;;5091276;28;19928;-76
2022/07/05 06:17:05;;;;;;;;;;;16.30;99.90;;;;;;5072741;28;20438;-76
2022/07/05 06:19:31;;;;;;;;;;;16.30;99.90;;;;;;5072990;28;19963;-76
2022/07/05 06:21:57;;;;;;;;;;;16.40;99.90;;;;;;5091364;28;20033;-76
2022/07/05 06:24:22;;;;;;;;;;;16.50;99.90;;;;;;5091154;28;19924;-76
2022/07/05 06:26:48;;;;;;;;;;;16.60;99.90;;;;;;5090504;28;19932;-76
2022/07/05 06:29:13;;;;;;;;;;;16.70;99.90;;;;;;5073258;28;19928;-76
2022/07/05 06:31:39;;;;;;;;;;;16.70;99.90;;;;;;5090963;28;20382;-76
2022/07/05 06:34:04;;;;;;;;;;;16.80;99.90;;;;;;5090813;28;19924;-76
2022/07/05 06:36:30;;;;;;;;;;;16.80;99.90;;;;;;5090437;28;19924;-76
2022/07/05 06:38:56;;;;;;;;;;;16.90;99.90;;;;;;5090655;28;19950;-76
2022/07/05 06:41:21;;;;;;;;;;;17.00;99.90;;;;;;5091101;28;19924;-77
2022/07/05 06:43:47;;;;;;;;;;;17.00;99.90;;;;;;5090944;28;19931;-76
2022/07/05 06:46:12;;;;;;;;;;;17.10;99.90;;;;;;5089882;28;19924;-76
2022/07/05 06:48:38;;;;;;;;;;;17.20;99.90;;;;;;5090610;28;19924;-77
2022/07/05 06:51:03;;;;;;;;;;;17.20;99.90;;;;;;5090868;28;20320;-76
2022/07/05 06:53:29;;;;;;;;;;;17.20;99.90;;;;;;5090489;28;19971;-77
2022/07/05 06:55:54;;;;;;;;;;;17.20;99.90;;;;;;5090346;28;20368;-76
2022/07/05 06:58:20;;;;;;;;;;;17.20;99.90;;;;;;5090633;28;19924;-77
2022/07/05 07:00:45;;;;;;;;;;;17.30;99.90;;;;;;5090464;28;19931;-76
2022/07/05 07:03:11;;;;;;;;;;;17.30;99.90;;;;;;5076824;28;19924;-76
2022/07/05 07:05:36;;;;;;;;;;;17.40;99.90;;;;;;5089921;28;19955;-77
2022/07/05 07:10:46;;;;;;;;;;;17.50;99.90;;;;;;5090304;28;19924;-77
2022/07/05 07:13:11;;;;;;;;;;;17.60;99.90;;;;;;5090401;28;19932;-76
2022/07/05 07:15:40;;;;;;;;;;;17.60;99.90;;;;;;5090023;28;19924;-76
2022/07/05 07:18:06;;;;;;;;;;;17.70;99.90;;;;;;5090182;28;19928;-76
2022/07/05 07:20:32;;;;;;;;;;;17.80;99.90;;;;;;5089905;28;20526;-76
2022/07/05 07:22:57;;;;;;;;;;;17.80;99.90;;;;;;5089933;28;19928;-76
2022/07/05 07:25:23;;;;;;;;;;;17.90;99.90;;;;;;5089657;28;19930;-76
2022/07/05 07:27:50;;;;;;;;;;;18.00;99.90;;;;;;5090027;28;20011;-76
2022/07/05 07:30:16;;;;;;;;;;;18.10;99.90;;;;;;5089756;28;19931;-77
2022/07/05 07:32:42;;;;;;;;;;;18.30;99.90;;;;;;5089972;28;19950;-76
2022/07/05 07:35:08;;;;;;;;;;;18.50;99.90;;;;;;5089832;28;20051;-77
2022/07/05 07:37:34;;;;;;;;;;;18.70;99.90;;;;;;5090094;28;20003;-76
2022/07/05 07:40:01;;;;;;;;;;;18.80;99.90;;;;;;5089550;28;19946;-76
2022/07/05 07:42:27;;;;;;;;;;;18.90;99.90;;;;;;5090144;28;19928;-77
2022/07/05 07:44:53;;;;;;;;;;;18.90;99.90;;;;;;5089735;28;20501;-77
2022/07/05 07:47:18;;;;;;;;;;;18.90;99.90;;;;;;5089628;28;19924;-77
2022/07/05 07:49:44;;;;;;;;;;;19.00;99.90;;;;;;5089527;28;20387;-76
2022/07/05 07:52:09;;;;;;;;;;;19.10;99.90;;;;;;5089042;28;20067;-76
2022/07/05 07:54:35;;;;;;;;;;;19.00;99.40;;;;;;5089061;28;19976;-77
2022/07/05 07:57:01;;;;;;;;;;;19.00;99.50;;;;;;5090113;28;19924;-77
2022/07/05 07:59:27;;;;;;;;;;;19.00;99.40;;;;;;5089536;28;19993;-77
2022/07/05 08:01:52;;;;;;;;;;;19.00;99.30;;;;;;5089660;28;20445;-76
2022/07/05 08:04:18;;;;;;;;;;;19.00;99.20;;;;;;5089060;28;19970;-77
2022/07/05 08:06:44;;;;;;;;;;;19.10;98.90;;;;;;5089504;28;19928;-77
2022/07/05 08:09:09;;;;;;;;;;;19.20;98.70;;;;;;5071320;28;19977;-77
2022/07/05 08:11:35;;;;;;;;;;;19.20;98.10;;;;;;5089833;28;19924;-77
2022/07/05 08:14:00;;;;;;;;;;;19.20;98.30;;;;;;5089076;28;19928;-77
2022/07/05 08:16:26;;;;;;;;;;;19.10;98.10;;;;;;5089650;28;19990;-76
2022/07/05 08:21:38;;;;;;;;;;;19.00;98.10;;;;;;5089682;28;19925;-77
2022/07/05 08:24:14;;;;;;;;;;;19.00;97.90;;;;;;5076268;28;19924;-77
2022/07/05 08:26:40;;;;;;;;;;;19.00;97.90;;;;;;5089407;28;20027;-77
2022/07/05 08:29:07;;;;;;;;;;;19.00;98.20;;;;;;5089336;28;20018;-77
2022/07/05 08:31:34;;;;;;;;;;;19.00;97.90;;;;;;5089200;28;19924;-77
2022/07/05 08:33:59;;;;;;;;;;;19.10;97.40;;;;;;5088806;28;20015;-77
2022/07/05 08:36:25;;;;;;;;;;;19.20;97.90;;;;;;5089189;28;20011;-77
2022/07/05 08:38:50;;;;;;;;;;;19.40;97.80;;;;;;5089017;28;20016;-77
2022/07/05 08:41:20;;;;;;;;;;;19.60;97.30;;;;;;5088469;28;19945;-77
2022/07/05 08:43:46;;;;;;;;;;;19.70;96.60;;;;;;5088944;28;20309;-77
2022/07/05 08:46:13;;;;;;;;;;;19.80;96.20;;;;;;5071322;28;20297;-77
2022/07/05 08:48:43;;;;;;;;;;;19.90;96.50;;;;;;5076838;28;19924;-77
2022/07/05 08:51:12;;;;;;;;;;;19.90;95.60;;;;;;5088260;28;20056;-77
2022/07/05 08:53:39;;;;;;;;;;;20.00;96.20;;;;;;5089189;28;19950;-77
2022/07/05 08:56:06;;;;;;;;;;;20.10;95.60;;;;;;5088505;28;19924;-76
2022/07/05 08:58:35;;;;;;;;;;;20.20;95.60;;;;;;5089265;28;19924;-77
2022/07/05 09:01:01;;;;;;;;;;;20.10;96.10;;;;;;5088907;28;19931;-77
2022/07/05 09:03:31;;;;;;;;;;;19.90;93.60;;;;;;5089634;28;19924;-76
2022/07/05 09:05:57;;;;;;;;;;;19.70;93.40;;;;;;5092414;28;19924;-76
2022/07/05 09:08:22;;;;;;;;;;;19.60;93.90;;;;;;5065871;28;20288;-77
2022/07/05 09:10:49;;;;;;;;;;;19.50;94.20;;;;;;5075344;28;19932;-77
2022/07/05 09:13:15;;;;;;;;;;;19.40;94.80;;;;;;5092231;28;19924;-77
2022/07/05 09:15:41;;;;;;;;;;;19.50;95.50;;;;;;5092529;28;20143;-77
2022/07/05 09:18:06;;;;;;;;;;;19.60;95.30;;;;;;5092540;28;20019;-77
2022/07/05 09:20:32;;;;;;;;;;;19.60;95.30;;;;;;5092180;28;19924;-76
2022/07/05 09:22:58;;;;;;;;;;;19.70;95.80;;;;;;5092070;28;19928;-77
2022/07/05 09:25:24;;;;;;;;;;;19.80;96.20;;;;;;5092386;28;19924;-77
2022/07/05 09:27:51;;;;;;;;;;;20.00;95.70;;;;;;5091643;28;20349;-76
2022/07/05 09:30:24;;;;;;;;;;;20.10;95.20;;;;;;5079292;28;20085;-77
2022/07/05 09:33:10;;;;;;;;;;;20.10;95.40;;;;;;5092837;28;20058;-77
2022/07/05 09:35:37;;;;;;;;;;;20.30;95.10;;;;;;5090589;28;19928;-76
2022/07/05 09:38:03;;;;;;;;;;;20.30;93.80;;;;;;5091849;28;19928;-77
2022/07/05 09:40:32;;;;;;;;;;;20.30;94.10;;;;;;5067503;28;19947;-77
2022/07/05 09:43:11;;;;;;;;;;;20.40;94.50;;;;;;5086028;28;19928;-77
2022/07/05 09:45:36;;;;;;;;;;;20.70;94.20;;;;;;5092438;28;19931;-77
2022/07/05 09:48:03;;;;;;;;;;;20.80;93.20;;;;;;5091495;28;19924;-77
2022/07/05 09:50:35;;;;;;;;;;;20.80;93.40;;;;;;5091835;28;19924;-77
2022/07/05 09:53:01;;;;;;;;;;;20.80;93.60;;;;;;5091329;28;20446;-77
2022/07/05 09:55:26;;;;;;;;;;;20.70;93.90;;;;;;5091944;28;19932;-77
2022/07/05 09:57:53;;;;;;;;;;;20.60;94.10;;;;;;5091247;28;20029;-77
2022/07/05 10:00:20;;;;;;;;;;;20.50;94.30;;;;;;5091361;28;19924;-77
2022/07/05 10:02:50;;;;;;;;;;;20.50;94.60;;;;;;5091644;28;20418;-77
2022/07/05 10:05:16;;;;;;;;;;;20.40;94.50;;;;;;5091754;28;20018;-77
2022/07/05 10:07:49;;;;;;;;;;;20.20;95.00;;;;;;5091270;28;19931;-77
2022/07/05 10:10:16;;;;;;;;;;;20.30;95.40;;;;;;5073129;28;19950;-77
2022/07/05 10:12:42;;;;;;;;;;;20.50;95.10;;;;;;5091299;28;19924;-76
2022/07/05 10:15:09;;;;;;;;;;;20.70;94.90;;;;;;5087471;28;20294;-77
2022/07/05 10:17:43;;;;;;;;;;;21.00;95.00;;;;;;5090213;28;19956;-77
2022/07/05 10:20:16;;;;;;;;;;;21.00;93.40;;;;;;5091332;28;19925;-77
2022/07/05 10:22:42;;;;;;;;;;;20.80;93.40;;;;;;5091181;28;19924;-77
2022/07/05 10:25:08;;;;;;;;;;;20.70;93.20;;;;;;5091126;28;19931;-77
2022/07/05 10:27:34;;;;;;;;;;;20.50;93.40;;;;;;5091082;28;19939;-77
2022/07/05 10:30:01;;;;;;;;;;;20.50;94.20;;;;;;5090378;28;20382;-77
2022/07/05 10:32:27;;;;;;;;;;;20.60;93.30;;;;;;5091282;28;19925;-77
2022/07/05 10:34:53;;;;;;;;;;;20.70;93.10;;;;;;5091232;28;19928;-77
2022/07/05 10:37:19;;;;;;;;;;;20.80;92.80;;;;;;5090788;28;19930;-77
2022/07/05 10:39:45;;;;;;;;;;;20.90;92.30;;;;;;5072635;28;20290;-77
2022/07/05 10:42:11;;;;;;;;;;;20.80;92.30;;;;;;5090194;28;19928;-77
2022/07/05 10:44:38;;;;;;;;;;;20.70;92.80;;;;;;5091202;28;19977;-77
2022/07/05 10:47:13;;;;;;;;;;;20.70;93.40;;;;;;5090161;28;19950;-76
2022/07/05 10:49:39;;;;;;;;;;;20.80;93.20;;;;;;5077403;28;19924;-77
2022/07/05 10:52:20;;;;;;;;;;;21.00;93.60;;;;;;5090580;28;19997;-77
2022/07/05 10:55:05;;;;;;;;;;;21.10;93.20;;;;;;5079160;28;19924;-77
2022/07/05 10:57:30;;;;;;;;;;;21.30;93.30;;;;;;5090474;28;20401;-77
2022/07/05 11:00:06;;;;;;;;;;;21.50;93.70;;;;;;5090584;28;19924;-77
2022/07/05 11:02:32;;;;;;;;;;;21.60;93.40;;;;;;5084902;28;19989;-77
2022/07/05 11:04:57;;;;;;;;;;;21.70;93.10;;;;;;5082676;28;19971;-77
2022/07/05 11:07:46;;;;;;;;;;;21.60;91.90;;;;;;5090510;28;19931;-76
2022/07/05 11:10:12;;;;;;;;;;;21.50;92.30;;;;;;5076207;28;19924;-77
2022/07/05 11:12:37;;;;;;;;;;;21.60;91.90;;;;;;5090606;28;19947;-77
2022/07/05 11:15:08;;;;;;;;;;;21.80;91.50;;;;;;5089791;28;19969;-77
2022/07/05 11:17:34;;;;;;;;;;;22.00;91.10;;;;;;5089552;28;19928;-77
2022/07/05 11:20:11;;;;;;;;;;;22.30;93.00;;;;;;5089871;28;19953;-76
2022/07/05 11:22:59;;;;;;;3.28;1.10;;;22.80;92.40;;;;;;5089715;28;19924;-77
2022/07/05 11:25:27;;;;;;;4.60;0.30;;;23.40;92.30;;;;;;5075605;28;20420;-77
2022/07/05 11:28:18;;;;;;;4.80;0.47;;;23.70;91.80;;;;;;5087515;28;20413;-76
2022/07/05 11:30:45;;;;;;;;;;;23.90;91.70;;;;;;5088168;28;20510;-77
2022/07/05 11:33:30;;;;;;;;;;;23.50;90.40;;;;;;5089769;28;19924;-77
2022/07/05 11:35:56;;;;;;;;;;;23.00;90.20;;;;;;5078485;28;19920;-77
2022/07/05 11:38:22;;;;;;;;;;;22.80;91.10;;;;;;5089895;28;19959;-77
2022/07/05 11:40:47;;;;;;;;;;;22.90;91.40;;;;;;5089796;28;20390;-77
2022/07/05 11:43:13;;;;;;;;;;;22.80;91.40;;;;;;5089690;28;19967;-77
2022/07/05 11:45:38;;;;;;;;;;;22.70;91.20;;;;;;5058280;28;19967;-77
2022/07/05 11:48:04;;;;;;;;;;;22.40;91.00;;;;;;5089662;28;19959;-77
2022/07/05 11:50:31;;;;;;;;;;;22.20;91.80;;;;;;5089981;28;19920;-77
2022/07/05 11:52:57;;;;;;;;;;;22.20;92.10;;;;;;5089358;28;20401;-76
2022/07/05 11:55:24;;;;;;;;;;;22.00;92.10;;;;;;5071305;28;19981;-77
2022/07/05 11:57:50;;;;;;;;;;;21.70;92.40;;;;;;5089590;28;20412;-77
2022/07/05 12:00:48;;;;;;;;;;;21.50;92.50;;;;;;5089366;28;19978;-77
2022/07/05 12:03:16;;;;;;;;;;;21.40;92.50;;;;;;5033581;28;19920;-77
2022/07/05 12:05:41;;;;;;;;;;;21.40;93.10;;;;;;5090046;28;19963;-77
2022/07/05 12:08:07;;;;;;;;;;;21.50;93.30;;;;;;5089437;28;19967;-77
2022/07/05 12:13:17;;;;;;;;;;;21.90;93.00;;;;;;5089214;28;19920;-77
2022/07/05 12:15:42;;;;;;;;;;;21.70;91.60;;;;;;5089154;28;19927;-77
2022/07/05 12:18:08;;;;;;;;;;;21.40;91.20;;;;;;5089108;28;19920;-77
2022/07/05 12:20:35;;;;;;;;;;;21.20;91.80;;;;;;5060973;28;19924;-77
2022/07/05 12:23:01;;;;;;;;;;;21.00;92.20;;;;;;5086206;28;19965;-77
2022/07/05 12:25:27;;;;;;;;;;;20.90;92.40;;;;;;5089090;28;19924;-77
2022/07/05 12:27:54;;;;;;;;;;;20.90;92.90;;;;;;5088184;28;20015;-76
2022/07/05 12:30:20;;;;;;;;;;;20.80;92.80;;;;;;5088591;28;19973;-77
2022/07/05 12:32:55;;;;;;;;;;;20.60;92.70;;;;;;5089120;28;19981;-77
2022/07/05 12:35:38;;;;;;;;;;;20.50;92.80;;;;;;5089167;28;19942;-77
2022/07/05 12:38:03;;;;;;;;;;;20.40;93.00;;;;;;5078030;28;20281;-76
2022/07/05 12:40:29;;;;;;;;;;;20.30;92.30;;;;;;5075262;28;19930;-77
2022/07/05 12:43:14;;;;;;;;;;;20.10;92.50;;;;;;5093173;28;19998;-77
2022/07/05 12:45:41;;;;;;;;;;;20.00;92.40;;;;;;5093096;28;20067;-77
2022/07/05 12:48:07;;;;;;;;;;;19.90;92.50;;;;;;5092961;28;20323;-77
2022/07/05 12:50:46;;;;;;;;;;;19.80;92.50;;;;;;5093019;28;19974;-77
2022/07/05 12:58:51;;;;;;;;;;;19.70;91.20;;;;;;5092659;28;19920;-77
2022/07/05 13:01:18;;;;;;;;;;;19.60;90.80;;;;;;5092629;28;19927;-77
2022/07/05 13:04:10;;;;;;;;;;;19.50;91.00;;;;;;5092169;28;19971;-77
2022/07/05 13:06:39;;;;;;;;;;;19.40;90.80;;;;;;5087694;28;19920;-77
2022/07/05 13:09:04;;;;;;;;;;;19.40;90.70;;;;;;5092609;28;20249;-77
2022/07/05 13:11:30;;;;;;;;;;;19.40;91.10;;;;;;5092458;28;19920;-76
2022/07/05 13:13:55;;;;;;;;;;;19.40;91.40;;;;;;5092626;28;19920;-77
2022/07/05 13:16:21;;;;;;;;;;;19.40;91.40;;;;;;5091969;28;19919;-77
2022/07/05 13:18:47;;;;;;;;;;;19.50;91.00;;;;;;5092839;28;20696;-77
2022/07/05 13:21:12;;;;;;;;;;;19.80;91.00;;;;;;5073282;28;19963;-77
2022/07/05 13:23:38;;;;;;;;;;;20.00;90.80;;;;;;5092667;28;19920;-77
2022/07/05 13:26:03;;;;;;;;;;;20.20;90.80;;;;;;5091820;28;19966;-77
2022/07/05 13:28:29;;;;;;;;;;;20.30;89.70;;;;;;5091936;28;20464;-77
2022/07/05 13:30:54;;;;;;;;;;;20.40;89.30;;;;;;5092028;28;20441;-77
2022/07/05 13:33:20;;;;;;;;;;;20.50;89.70;;;;;;5073412;28;19930;-77
2022/07/05 13:35:46;;;;;;;;;;;20.70;90.40;;;;;;5092166;28;19920;-77
2022/07/05 13:38:11;;;;;;;;;;;21.00;89.20;;;;;;5092223;28;19970;-77
2022/07/05 13:40:37;;;;;;;;;;;21.20;88.10;;;;;;5091870;28;20386;-77
2022/07/05 13:43:02;;;;;;;;;;;21.40;87.90;;;;;;5091802;28;19920;-77
2022/07/05 13:45:29;;;;;;;;;;;21.50;87.40;;;;;;5091742;28;19930;-77
2022/07/05 13:47:54;;;;;;;;;;;21.50;84.70;;;;;;5092051;28;20014;-77
2022/07/05 13:50:32;;;;;;;;;;;21.40;85.10;;;;;;5090622;28;20043;-77
2022/07/05 13:52:58;;;;;;;;;;;21.40;84.90;;;;;;5091686;28;19965;-77
2022/07/05 13:55:24;;;;;;;;;;;21.40;85.50;;;;;;5091723;28;19928;-77
2022/07/05 13:57:49;;;;;;;;;;;21.70;85.70;;;;;;5091920;28;20464;-77
2022/07/05 14:00:15;;;;;;;;;;;22.10;86.10;;;;;;5071283;28;19942;-77
2022/07/05 14:02:41;;;;;;;;;;;22.20;84.50;;;;;;5091392;28;19923;-77
2022/07/05 14:05:06;;;;;;;;;;;22.20;83.30;;;;;;5091511;28;19923;-77
2022/07/05 14:07:32;;;;;;;;;;;22.10;83.60;;;;;;5091164;28;19929;-77
2022/07/05 14:09:57;;;;;;;;;;;22.20;83.90;;;;;;5091355;28;20031;-77
2022/07/05 14:12:23;;;;;;;;;;;22.70;83.40;;;;;;5091532;28;19924;-77
2022/07/05 14:14:48;;;;;;;;;;;23.20;80.80;;;;;;5090807;28;20279;-77
2022/07/05 14:17:14;;;;;;;;;;;22.70;79.60;;;;;;5091004;28;19920;-77
2022/07/05 14:19:39;;;;;;;;;;;22.30;80.40;;;;;;5091621;28;19966;-77
2022/07/05 14:22:05;;;;;;;;;;;22.30;82.00;;;;;;5091333;28;20334;-77
2022/07/05 14:24:30;;;;;;;;;;;22.40;82.20;;;;;;5090990;28;19927;-77
2022/07/05 14:26:56;;;;;;;;;;;22.80;81.60;;;;;;5090671;28;19927;-77
2022/07/05 14:29:22;;;;;;;;;;;22.90;80.60;;;;;;5073296;28;20386;-77